Trips / Marburg

trip
Visiting the university town of Marburg
5 June 2018
EDLP; Paderborn-Lippstadt EDFN; Marburg-Schonstadt



From Paderborn-Lippstadt to Marburg

Satellite Images 5 June 2018
Satellite images 5 June 2018
Marburg had been long on the wish-list of places to visit. We planned a visit for Tuesday afternoon, 5 June 2018. René informed Bernd, a contact from Marburg about the planned visit. We would meet in the afternoon in Marburg. When we arrived at Paderborn-Lippstadt in the morning, it was still IMC, not unusual for the area. We waited until 13:20 CET / 11:20 UTC, and then the weather had sufficiently cleared-up to depart. At Marburg, Bernd picked us up at the airfield, and then we visited Marburg with Bernd and Karin. Marburg is a lovely place to visit.
Thank you, Bernd and Karin, for showing us around and for your hospitality. It was great.

EDLP 050950Z 01003KT 290V070 5000 BKN008 16/13 Q1015
EDLP 051020Z 03004KT 340V080 5000 BKN008 16/12 Q1015
EDLP 051050Z 35003KT 280V080 5000 BKN008 16/12 Q1015
EDLP 051120Z 35004KT 5000 BKN017 16/12 Q1015
EDLP 051150Z VRB04KT 5000 BKN018 17/12 Q1015
EDLP 051220Z VRB03KT 8000 BKN020 18/12 Q1014
EDLP 051250Z VRB03KT 8000 BKN022 18/12 Q1014
EDLP 051320Z 33004KT 270V040 9000 SCT024 18/12 Q1014
EDLP 051350Z VRB02KT 9000 SCT024 20/13 Q1014
EDLP 051420Z 35005KT 280V080 CAVOK 20/13 Q1014
EDLP 051450Z 03004KT CAVOK 20/12 Q1014
EDLP 051520Z VRB03KT CAVOK 21/13 Q1013
EDLP 051550Z 35004KT CAVOK 20/13 Q1013
EDLP 051620Z 36004KT CAVOK 21/13 Q1013
EDLP 051650Z 02005KT CAVOK 20/13 Q1013

The METAR's for Paderborn-Lippstadt

Rene fueling the Skylane at Paderborn-Lippstadt
René fueling the Skylane
View of Paderborn-Lippstadt apron
View of Paderborn-Lippstadt apron
Final runway 04 Marburg-Schonstadt
Final runway 04 Marburg-Schönstadt
Rene at Marburg-Schonstadt
René at Marburg-Schonstadt
Veleda at Marburg-Schonstadt
Veleda at Marburg-Schönstadt
Karin, Bernd and Rene
Karin, Bernd and René

Marburg
Marburg
Marburg is a University town in the German federal state of Hesse, in the Lahn valley. Its cobbled streets and the Hessian architecture of the 17-18th century has been well-preserved, as the town escaped the bombings of the Second World War. The University of Marburg was founded in 1527 and dominates the public live the the town to this day. The Brothers Grimm attended the university, and collected many of their fairy tales here.

Rathaus
Rathaus (old town hall)
The half-timbered houses, narrow alleys, steep steps, the market-place and the castle in the old historical town remind the visitor of the fairy tales. The Marktplatz is the heart of Marburg's old town. In the center is a fountain dedicated to St. Georg, a popular meeting place for students. To the south is the old town hall and the path leading north winds its way up to the palace overlooking the town.

St. Elizabeth Church
St. Elizabeth's Church
The St. Elizabeth's Church was built by the Order of the Teutonic Knights in honour of St. Elizabeth of Hungary. The Elisabethkirche is Germany's earliest purely Gothic hall church. The burial of St. Elisabeth in the church made it an important pilgrimage site during the Middle Ages. After World War Two, former president Von Hindenburg and his wife were buried in the Elizabeth Church.

Landgrave Castle
Landgrave Castle
The Marburger Schloss or Landgrafenschloss Marburg is located on top of Schlossberg. It was built between 1248 and 1300 by the first Hessian Landgrave, Heinrich I, on the site of a previous stronghold. An important part of the castle, which is now in the possession of the university, is the university museum for cultural history, with exhibits on cultural history from prehistoric to modern times.

Visiting Marburg

Tourist map of Marburg Old Town

Sights of Marburg(1)
Sights of Marburg(2)
Sights of Marburg(3)
Sights of Marburg



From Marburg to Paderborn-Lippstadt

Karin and Bernd with the Cessna
Karin and Bernd with the Cessna
Schonstadt
Schönstadt
Approaching base runway 06 Paderborn-Lippstadt
Base runway 06 Paderborn-Lippstadt
Short final runway 06 Paderborn-Lippstadt
Short final runway 06 Paderborn-Lippstadt


Other Trips | Top